Weather at Austin Executive Airport

Public forecast

Using degrees Fahrenheit for public forecast. Weather courtesy of forecast.io.

Closest aviation weather report (METAR) to Austin Executive Airport

Closest report is Austin Bergstrom International Airport, 13.0 nm (24.1 km) SSW. Retrieved 2021/10/17 22:53 UTC (1 hour ago):

KAUS 172253Z 08004KT 10SM FEW150 BKN250 22/04 A3019 RMK AO2 SLP222 T02220039

Closest aviation forecast (TAF) to Austin Executive Airport

Closest forecast is Austin Bergstrom International Airport, 13.0 nm (24.1 km) SSW. Retrieved 2021-10-18 00:22 UTC (0 seconds ago):

TAF KAUS 172320Z 1800/1906 VRB03KT P6SM SCT250 FM181800 15006KT P6SM FEW250